Karabiga Airport

TR-0023 · 恰纳卡莱省, 土耳其

使用的METAR站距离机场58 km。
罗盘
风向 的 风向 020° Karabiga Airport 2/20
风: 5 kt, 2 beaufort

5 kt

1 kt
改变
0 ft 1.000 2.000 3.000 4.000 5.000
没有观察到明显的云
METAR LTBG 012250Z 02005KT 6000 NSC 09/08 Q1012 NOSIG RMK RWY18 03007KT

METAR Karabiga Airport - TR-0023

Karabiga Airport是,土耳其中的小机场。 该机场位于纬度40,38085和经度27,30339。 该机场有一条跑道: 2/20. 这个机场没有ICAO代码,我们使用TR-0023作为参考。 机场在Istanbul FIR中。

该航空气象观测是针对Bandırma Airport在2024年3月2日 01:50, 当地时间进行的。

机场观察

风向为020°,速度为5 kt。

可见度为6 km。

有没有观察到明显的云。 没有观察到天花板。

温度为9 °C,阵风为6 °C。 露点为8 °C,相对湿度为94%。 海平面上的气压为1012 hPa (QNH)。

白天

今天,太阳从07:43升起,在19:02降落。 这适用于Karabiga Airport,世界夏令时可能有所不同。 当地时间与世界标准时间之间的时差为+3 小时。 当前,没有夏令时有效。

公司介绍

我们没有关于这个机场的公司信息。

体会

到Vliegles.nl去找飞行课程,跳伞和其他飞行体验。 浏览页面,了解Karabiga Airport附近所有可用的活动。 你也可以使用搜索功能来寻找你所在地附近的特定飞行课程、跳伞或其他飞行体验。

跑道

Id 标题 侧风 逆风 侧风 %
2/20 027°-207° 5 kt 12 %

逆风成分最大的方向会被突出显示,并用于横风计算。 这并不一定意味着这个方向在使用。

乌云

- NSC 没有观察到明显的云

温度 & 天气

温度 9 °C
露点 8 °C
相对湿度 94%
风寒 6 °C
Kp-index 0 (0-9)

评论

RWY18 03007KT

白天

日出
07:40 (5:22)
中午
13:20
日落
18:59

小工具

你想在你的网站上有一个关于Karabiga Airport的当前航空天气(METAR)的小部件吗?

显示HTML代码
?>